Ile De Groix — FGF7300 — position and weather

sailwx.info

Track history (hours):
 
Tides and Currents Weather Stations Pressure Air Temp Water Temp Dewpoint Dewpoint Depression Visibility Wind Speed Wind Dir Waves Ship Positions

Ile De Groix

Last reported at 2017-Oct-06 22:55 UTC. Time now 2017-Nov-22 02:02 UTC.
Position N 47°44' W 003°21'.
Warning: this ship's position is 46 days out of date.

Length 46 m; draft 2.8 m.

Type: Passenger vessel. MMSI: 227749270.

Date/timePositionNaut miles runAvg speedWind from/ knotsBaromVisibWave heightAir tempDewpointWater temp
2017-Oct-06 22:55N 47°44' W 003°21'0 0.7
2017-Oct-06 22:30N 47°44' W 003°21'510.5
2017-Oct-06 22:00N 47°39' W 003°22'612.5
2017-Oct-06 21:30N 47°33' W 003°18'612.9
2017-Oct-06 21:00N 47°28' W 003°14'713.4
2017-Oct-06 20:30N 47°22' W 003°09'1 2.2
2017-Oct-06 20:00N 47°21' W 003°09'0 0.0
2017-Oct-06 19:26N 47°21' W 003°09'0 0.0
2017-Oct-06 19:00N 47°21' W 003°09'0 0.0
2017-Oct-06 18:28N 47°21' W 003°09'1 2.4
2017-Oct-06 18:00N 47°22' W 003°08'612.3
2017-Oct-06 17:30N 47°28' W 003°08'1 1.6
2017-Oct-06 17:00N 47°29' W 003°07'0 0.0
2017-Oct-06 16:30N 47°29' W 003°07'3 5.9
2017-Oct-06 16:00N 47°26' W 003°08'5 9.8
2017-Oct-06 15:30N 47°21' W 003°09'0 0.0
2017-Oct-06 15:00N 47°21' W 003°09'0 0.0
2017-Oct-06 14:28N 47°21' W 003°09'3 6.9
2017-Oct-06 14:00N 47°24' W 003°07'5 9.5
2017-Oct-06 13:30N 47°29' W 003°07'0 1.0
2017-Oct-06 13:00N 47°28' W 003°07'611.6
2017-Oct-06 12:30N 47°22' W 003°08'2 3.1
2017-Oct-06 11:59N 47°21' W 003°09'0 0.3
2017-Oct-06 11:30N 47°21' W 003°09'611.8
2017-Oct-06 11:00N 47°27' W 003°08'2 3.9
2017-Oct-06 10:30N 47°29' W 003°07'0 0.0
2017-Oct-06 10:00N 47°29' W 003°07'0 0.0
2017-Oct-06 09:30N 47°29' W 003°07'0 0.0
2017-Oct-06 09:00N 47°29' W 003°07'0 0.1
2017-Oct-06 08:31N 47°29' W 003°07'611.9
2017-Oct-06 08:00N 47°23' W 003°08'2 3.7
2017-Oct-06 07:30N 47°21' W 003°09'0 0.0
2017-Oct-06 06:59N 47°21' W 003°09'510.2
2017-Oct-06 06:30N 47°26' W 003°08'3 6.0
2017-Oct-06 06:00N 47°29' W 003°07'0 0.1
2017-Oct-06 05:30N 47°29' W 003°07'611.6
2017-Oct-06 05:00N 47°23' W 003°08'2 4.1
2017-Oct-06 04:30N 47°21' W 003°09'0 0.2
2017-Oct-06 04:00N 47°21' W 003°09'0 0.0
2017-Oct-05 19:20N 47°21' W 003°09'0 0.3
2017-Oct-05 19:00N 47°21' W 003°09'611.4
2017-Oct-05 18:30N 47°26' W 003°08'2 4.4
2017-Oct-05 18:00N 47°29' W 003°07'3 5.2
2017-Oct-05 17:30N 47°26' W 003°08'510.4
2017-Oct-05 17:00N 47°21' W 003°09'8 5.3
2017-Oct-05 15:30N 47°29' W 003°07'0 0.1
2017-Oct-05 15:00N 47°29' W 003°07'3 5.5
2017-Oct-05 14:30N 47°26' W 003°08'510.3
2017-Oct-05 14:01N 47°21' W 003°09'0 0.0
2017-Oct-05 13:17N 47°21' W 003°09'2 8.3
2017-Oct-05 13:00N 47°23' W 003°08'611.5
2017-Oct-05 12:30N 47°29' W 003°07'0 0.0
2017-Oct-05 12:00N 47°29' W 003°07'3 6.3
2017-Oct-05 11:30N 47°25' W 003°08'5 9.2
2017-Oct-05 10:59N 47°21' W 003°09'0 0.0
2017-Oct-05 10:30N 47°21' W 003°09'2 4.8
2017-Oct-05 10:00N 47°23' W 003°08'611.0
2017-Oct-05 09:30N 47°29' W 003°07'0 0.0
2017-Oct-05 09:00N 47°29' W 003°07'0 0.0
2017-Oct-05 08:30N 47°29' W 003°07'510.4
2017-Oct-05 08:00N 47°23' W 003°08'3 5.2
2017-Oct-05 07:30N 47°21' W 003°09'0 0.0
2017-Oct-05 07:00N 47°21' W 003°09'510.0
2017-Oct-05 06:30N 47°26' W 003°08'3 5.8
2017-Oct-05 06:00N 47°29' W 003°07'0 0.0
2017-Oct-05 05:31N 47°29' W 003°07'611.5
2017-Oct-05 05:00N 47°23' W 003°08'2 4.2
2017-Oct-05 04:30N 47°21' W 003°09'0 0.2
2017-Oct-05 04:00N 47°21' W 003°09'0 0.0
2017-Oct-04 18:39N 47°21' W 003°09'0 0.0
2017-Oct-04 18:30N 47°21' W 003°09'2 4.5
2017-Oct-04 18:00N 47°23' W 003°08'611.2
2017-Oct-04 17:31N 47°29' W 003°07'0 0.0
2017-Oct-04 17:01N 47°29' W 003°07'611.6
2017-Oct-04 16:30N 47°23' W 003°08'2 3.8
2017-Oct-04 15:58N 47°21' W 003°09'3 5.6
2017-Oct-04 15:31N 47°23' W 003°08'510.8
2017-Oct-04 15:01N 47°29' W 003°07'0 0.0
2017-Oct-04 14:31N 47°29' W 003°07'3 5.8
2017-Oct-04 14:00N 47°26' W 003°08'5 9.5
2017-Oct-04 13:29N 47°21' W 003°09'0 0.0
2017-Oct-04 13:01N 47°21' W 003°09'3 5.2
2017-Oct-04 12:30N 47°23' W 003°07'510.8
2017-Oct-04 12:00N 47°29' W 003°07'0 0.0
2017-Oct-04 11:30N 47°29' W 003°07'3 6.1
2017-Oct-04 11:01N 47°26' W 003°08'5 9.7
2017-Oct-04 10:30N 47°21' W 003°09'0 0.0
2017-Oct-04 10:00N 47°21' W 003°09'3 6.9
2017-Oct-04 09:30N 47°24' W 003°08'5 9.0
2017-Oct-04 09:00N 47°29' W 003°07'0 0.1
2017-Oct-04 08:30N 47°29' W 003°07'611.7
2017-Oct-04 08:00N 47°23' W 003°08'2 3.9
2017-Oct-04 07:30N 47°21' W 003°09'0 0.1
2017-Oct-04 07:00N 47°21' W 003°09'510.7
2017-Oct-04 06:31N 47°26' W 003°08'3 5.0
2017-Oct-04 06:00N 47°29' W 003°07'0 0.1
2017-Oct-04 05:31N 47°29' W 003°07'611.8
2017-Oct-04 05:00N 47°23' W 003°08'2 3.4
2017-Oct-04 04:26N 47°21' W 003°09'0 0.2
2017-Oct-04 04:01N 47°21' W 003°09'0 0.0
2017-Oct-03 18:39N 47°21' W 003°09'0 0.3
2017-Oct-03 18:30N 47°21' W 003°09'3 5.1
2017-Oct-03 18:00N 47°23' W 003°08'510.6
2017-Oct-03 17:30N 47°29' W 003°07'0 0.1
2017-Oct-03 17:00N 47°29' W 003°07'611.9
2017-Oct-03 16:30N 47°23' W 003°08'2 2.7
2017-Oct-03 15:49N 47°21' W 003°09'3 9.2
2017-Oct-03 15:30N 47°24' W 003°08'510.1
2017-Oct-03 15:00N 47°29' W 003°07'3 2.8
2017-Oct-03 14:00N 47°26' W 003°08'510.2
2017-Oct-03 13:31N 47°21' W 003°09'0 0.0
2017-Oct-03 12:57N 47°21' W 003°09'3 5.6
2017-Oct-03 12:30N 47°23' W 003°08'510.8
2017-Oct-03 12:00N 47°29' W 003°07'0 0.0
2017-Oct-03 11:30N 47°29' W 003°07'3 6.0
2017-Oct-03 11:00N 47°26' W 003°08'5 9.1
2017-Oct-03 10:28N 47°21' W 003°09'0 0.0
2017-Oct-03 10:00N 47°21' W 003°09'2 4.8
2017-Oct-03 09:30N 47°23' W 003°08'611.1
2017-Oct-03 09:00N 47°29' W 003°07'0 0.0
2017-Oct-03 08:30N 47°29' W 003°07'510.4
2017-Oct-03 08:00N 47°23' W 003°08'3 5.3
2017-Oct-03 07:29N 47°21' W 003°09'0 0.0
2017-Oct-03 06:59N 47°21' W 003°09'510.0
2017-Oct-03 06:30N 47°26' W 003°08'3 6.2
2017-Oct-03 06:00N 47°29' W 003°07'0 0.1
2017-Oct-03 05:31N 47°29' W 003°07'611.7
2017-Oct-03 05:00N 47°23' W 003°08'2 3.9
2017-Oct-03 04:30N 47°21' W 003°09'0 0.2
2017-Oct-03 04:00N 47°21' W 003°09'0 0.0
2017-Oct-02 18:54N 47°21' W 003°09'0 0.2
2017-Oct-02 18:29N 47°21' W 003°09'3 7.0
2017-Oct-02 18:00N 47°24' W 003°08'5 9.1
2017-Oct-02 17:30N 47°29' W 003°07'0 0.0
2017-Oct-02 17:00N 47°29' W 003°07'611.6
2017-Oct-02 16:30N 47°23' W 003°08'2 3.6
2017-Oct-02 15:56N 47°21' W 003°09'3 5.9
2017-Oct-02 15:30N 47°23' W 003°08'510.8
2017-Oct-02 15:00N 47°29' W 003°07'0 0.0
2017-Oct-02 14:30N 47°29' W 003°07'3 5.3
2017-Oct-02 14:00N 47°26' W 003°08'510.5
2017-Oct-02 13:30N 47°21' W 003°09'0 0.0
2017-Oct-02 13:00N 47°21' W 003°09'2 4.9
2017-Oct-02 12:30N 47°23' W 003°08'510.9
2017-Oct-02 12:00N 47°29' W 003°07'0 0.0
2017-Oct-02 11:30N 47°29' W 003°07'3 6.3
2017-Oct-02 11:00N 47°25' W 003°08'5 4.0
2017-Oct-02 09:50N 47°21' W 003°09'3 9.9
2017-Oct-02 09:30N 47°24' W 003°08'5 9.4
2017-Oct-02 09:00N 47°29' W 003°07'0 0.0
2017-Oct-02 08:31N 47°29' W 003°07'510.9
2017-Oct-02 08:01N 47°23' W 003°08'2 3.5
2017-Oct-02 07:18N 47°21' W 003°09'0 0.0
2017-Oct-02 06:58N 47°21' W 003°09'510.4
2017-Oct-02 06:31N 47°26' W 003°08'3 6.1
2017-Oct-02 06:00N 47°29' W 003°07'0 0.0
2017-Oct-02 05:31N 47°29' W 003°07'3 6.3
2017-Oct-02 05:00N 47°25' W 003°08'5 9.1
2017-Oct-02 04:30N 47°21' W 003°09'0 0.0
2017-Oct-02 04:00N 47°21' W 003°09'0 0.0
2017-Oct-01 18:37N 47°21' W 003°09'0 0.2
2017-Oct-01 18:30N 47°21' W 003°09'3 6.2
2017-Oct-01 18:01N 47°24' W 003°08'5 9.5
2017-Oct-01 17:30N 47°29' W 003°07'1 1.2
2017-Oct-01 17:00N 47°28' W 003°07'612.3
2017-Oct-01 16:30N 47°22' W 003°09'1 2.3
2017-Oct-01 16:00N 47°21' W 003°09'4 7.4
2017-Oct-01 15:30N 47°24' W 003°08'4 8.5
2017-Oct-01 15:01N 47°29' W 003°07'0 0.0
2017-Oct-01 14:30N 47°29' W 003°07'4 8.2
2017-Oct-01 14:00N 47°25' W 003°08'4 7.5
2017-Oct-01 13:30N 47°21' W 003°09'0 0.0
2017-Oct-01 13:00N 47°21' W 003°09'2 4.8
2017-Oct-01 12:30N 47°23' W 003°08'511.0
2017-Oct-01 12:00N 47°29' W 003°07'0 0.0
2017-Oct-01 11:30N 47°29' W 003°07'3 5.9
2017-Oct-01 11:00N 47°26' W 003°08'5 9.7
2017-Oct-01 10:30N 47°21' W 003°09'0 0.0
2017-Oct-01 10:00N 47°21' W 003°09'3 5.5
2017-Oct-01 09:31N 47°23' W 003°08'510.4
2017-Oct-01 09:00N 47°29' W 003°07'0 0.0
2017-Oct-01 08:30N 47°29' W 003°07'5 9.9
2017-Oct-01 08:00N 47°24' W 003°08'3 5.8
2017-Oct-01 07:30N 47°21' W 003°09'0 0.0
2017-Oct-01 07:00N 47°21' W 003°09'510.8
2017-Oct-01 06:30N 47°26' W 003°08'3 5.1
2017-Oct-01 06:00N 47°29' W 003°07'3 6.3
2017-Oct-01 05:30N 47°25' W 003°08'5 7.7
2017-Oct-01 04:54N 47°21' W 003°09'0 0.1
2017-Oct-01 04:30N 47°21' W 003°09'0 0.0
2017-Sep-29 18:46N 47°21' W 003°09'0 0.3
2017-Sep-29 18:30N 47°21' W 003°09'3 5.2
2017-Sep-29 18:00N 47°23' W 003°08'510.8
2017-Sep-29 17:30N 47°29' W 003°07'0 0.7
2017-Sep-29 17:00N 47°28' W 003°07'612.2
2017-Sep-29 16:30N 47°22' W 003°08'1 2.6
2017-Sep-29 15:58N 47°21' W 003°09'4 9.8
2017-Sep-29 15:30N 47°25' W 003°08'3 6.9
2017-Sep-29 15:00N 47°29' W 003°07'0 0.2
2017-Sep-29 14:31N 47°29' W 003°07'612.0
2017-Sep-29 14:00N 47°23' W 003°08'2 3.5
2017-Sep-29 13:29N 47°21' W 003°09'0 0.0
2017-Sep-29 12:59N 47°21' W 003°09'4 7.8
2017-Sep-29 12:30N 47°24' W 003°08'4 8.4
2017-Sep-29 12:00N 47°29' W 003°07'0 0.0
2017-Sep-29 11:30N 47°29' W 003°07'3 5.9
2017-Sep-29 11:00N 47°26' W 003°08'5 9.6
2017-Sep-29 10:30N 47°21' W 003°09'0 0.0
2017-Sep-29 10:00N 47°21' W 003°09'3 5.5
2017-Sep-29 09:30N 47°23' W 003°08'510.3
2017-Sep-29 09:00N 47°29' W 003°07'0 0.0
2017-Sep-29 08:30N 47°29' W 003°07'510.3
2017-Sep-29 08:00N 47°23' W 003°08'3 5.0
2017-Sep-29 07:28N 47°21' W 003°09'0 0.0
2017-Sep-29 06:58N 47°21' W 003°09'510.2
2017-Sep-29 06:30N 47°25' W 003°08'3 6.5
2017-Sep-29 06:00N 47°29' W 003°07'0 0.2
2017-Sep-29 05:30N 47°29' W 003°07'612.1
2017-Sep-29 05:00N 47°23' W 003°09'2 3.4
2017-Sep-29 04:30N 47°21' W 003°09'0 0.2
2017-Sep-29 04:00N 47°21' W 003°09'0 0.0
2017-Sep-28 18:50N 47°21' W 003°09'0 0.1
2017-Sep-28 18:31N 47°21' W 003°09'3 5.1
2017-Sep-28 18:00N 47°23' W 003°08'510.5
2017-Sep-28 17:30N 47°29' W 003°07'0 0.2
2017-Sep-28 17:00N 47°29' W 003°07'612.2
2017-Sep-28 16:30N 47°22' W 003°08'2 3.3
2017-Sep-28 16:00N 47°21' W 003°09'3 6.0
2017-Sep-28 15:30N 47°24' W 003°08'5 9.9
2017-Sep-28 15:00N 47°29' W 003°07'0 0.0
2017-Sep-28 14:30N 47°29' W 003°07'4 9.0
2017-Sep-28 14:00N 47°24' W 003°08'3 4.4
2017-Sep-28 13:14N 47°21' W 003°09'0 0.0
2017-Sep-28 13:00N 47°21' W 003°09'3 6.4
2017-Sep-28 12:30N 47°24' W 003°08'5 9.4
2017-Sep-28 12:00N 47°29' W 003°07'0 0.0
2017-Sep-28 11:30N 47°29' W 003°07'3 6.1
2017-Sep-28 11:00N 47°26' W 003°08'5 9.7
2017-Sep-28 10:30N 47°21' W 003°09'0 0.0
2017-Sep-28 09:58N 47°21' W 003°09'3 6.2
2017-Sep-28 09:30N 47°24' W 003°08'510.2
2017-Sep-28 09:00N 47°29' W 003°07'1 1.4
2017-Sep-28 08:30N 47°28' W 003°07'612.1
2017-Sep-28 08:00N 47°22' W 003°08'1 1.8
2017-Sep-28 07:20N 47°21' W 003°09'1 2.1
2017-Sep-28 07:00N 47°21' W 003°08'612.0
2017-Sep-28 06:30N 47°27' W 003°07'1 2.8
2017-Sep-28 06:00N 47°29' W 003°07'1 2.3
2017-Sep-28 05:30N 47°27' W 003°08'612.0
2017-Sep-28 05:00N 47°22' W 003°09'1 1.6
2017-Sep-28 04:30N 47°21' W 003°09'0 0.2
2017-Sep-28 04:00N 47°21' W 003°09'0 0.0
2017-Sep-27 19:27N 47°21' W 003°09'0 0.2
2017-Sep-27 18:59N 47°21' W 003°09'1 1.9
2017-Sep-27 18:30N 47°22' W 003°08'612.0
2017-Sep-27 18:00N 47°28' W 003°08'1 2.2
2017-Sep-27 17:30N 47°29' W 003°07'2 4.4
2017-Sep-27 17:00N 47°26' W 003°08'611.3
2017-Sep-27 16:30N 47°21' W 003°09'0 0.1
2017-Sep-27 15:58N 47°21' W 003°09'4 8.8
2017-Sep-27 15:30N 47°25' W 003°10'611.7
2017-Sep-27 15:01N 47°30' W 003°14'611.6
2017-Sep-27 14:30N 47°35' W 003°18'611.7
2017-Sep-27 14:00N 47°40' W 003°22'4 8.1
2017-Sep-27 13:30N 47°44' W 003°21'0 0.0
2017-Sep-27 13:00N 47°44' W 003°21'0 0.0
2017-Sep-27 12:30N 47°44' W 003°21'0 0.0
2017-Sep-27 12:01N 47°44' W 003°21'  
Track history (hours):
 
Tides and Currents Weather Stations Pressure Air Temp Water Temp Dewpoint Dewpoint Depression Visibility Wind Speed Wind Dir Waves Ship Positions

Ile De Groix

Last reported at 2017-Oct-06 22:55 UTC. Time now 2017-Nov-22 02:02 UTC.
Position N 47°44' W 003°21'.
Warning: this ship's position is 46 days out of date.

Length 46 m; draft 2.8 m.

Type: Passenger vessel. MMSI: 227749270.

Date/timePositionNaut miles runAvg speedWind from/ knotsBaromVisibWave heightAir tempDewpointWater temp
2017-Oct-06 22:55N 47°44' W 003°21'0 0.7
2017-Oct-06 22:30N 47°44' W 003°21'510.5
2017-Oct-06 22:00N 47°39' W 003°22'612.5
2017-Oct-06 21:30N 47°33' W 003°18'612.9
2017-Oct-06 21:00N 47°28' W 003°14'713.4
2017-Oct-06 20:30N 47°22' W 003°09'1 2.2
2017-Oct-06 20:00N 47°21' W 003°09'0 0.0
2017-Oct-06 19:26N 47°21' W 003°09'0 0.0
2017-Oct-06 19:00N 47°21' W 003°09'0 0.0
2017-Oct-06 18:28N 47°21' W 003°09'1 2.4
2017-Oct-06 18:00N 47°22' W 003°08'612.3
2017-Oct-06 17:30N 47°28' W 003°08'1 1.6
2017-Oct-06 17:00N 47°29' W 003°07'0 0.0
2017-Oct-06 16:30N 47°29' W 003°07'3 5.9
2017-Oct-06 16:00N 47°26' W 003°08'5 9.8
2017-Oct-06 15:30N 47°21' W 003°09'0 0.0
2017-Oct-06 15:00N 47°21' W 003°09'0 0.0
2017-Oct-06 14:28N 47°21' W 003°09'3 6.9
2017-Oct-06 14:00N 47°24' W 003°07'5 9.5
2017-Oct-06 13:30N 47°29' W 003°07'0 1.0
2017-Oct-06 13:00N 47°28' W 003°07'611.6
2017-Oct-06 12:30N 47°22' W 003°08'2 3.1
2017-Oct-06 11:59N 47°21' W 003°09'0 0.3
2017-Oct-06 11:30N 47°21' W 003°09'611.8
2017-Oct-06 11:00N 47°27' W 003°08'2 3.9
2017-Oct-06 10:30N 47°29' W 003°07'0 0.0
2017-Oct-06 10:00N 47°29' W 003°07'0 0.0
2017-Oct-06 09:30N 47°29' W 003°07'0 0.0
2017-Oct-06 09:00N 47°29' W 003°07'0 0.1
2017-Oct-06 08:31N 47°29' W 003°07'611.9
2017-Oct-06 08:00N 47°23' W 003°08'2 3.7
2017-Oct-06 07:30N 47°21' W 003°09'0 0.0
2017-Oct-06 06:59N 47°21' W 003°09'510.2
2017-Oct-06 06:30N 47°26' W 003°08'3 6.0
2017-Oct-06 06:00N 47°29' W 003°07'0 0.1
2017-Oct-06 05:30N 47°29' W 003°07'611.6
2017-Oct-06 05:00N 47°23' W 003°08'2 4.1
2017-Oct-06 04:30N 47°21' W 003°09'0 0.2
2017-Oct-06 04:00N 47°21' W 003°09'0 0.0
2017-Oct-05 19:20N 47°21' W 003°09'0 0.3
2017-Oct-05 19:00N 47°21' W 003°09'611.4
2017-Oct-05 18:30N 47°26' W 003°08'2 4.4
2017-Oct-05 18:00N 47°29' W 003°07'3 5.2
2017-Oct-05 17:30N 47°26' W 003°08'510.4
2017-Oct-05 17:00N 47°21' W 003°09'8 5.3
2017-Oct-05 15:30N 47°29' W 003°07'0 0.1
2017-Oct-05 15:00N 47°29' W 003°07'3 5.5
2017-Oct-05 14:30N 47°26' W 003°08'510.3
2017-Oct-05 14:01N 47°21' W 003°09'0 0.0
2017-Oct-05 13:17N 47°21' W 003°09'2 8.3
2017-Oct-05 13:00N 47°23' W 003°08'611.5
2017-Oct-05 12:30N 47°29' W 003°07'0 0.0
2017-Oct-05 12:00N 47°29' W 003°07'3 6.3
2017-Oct-05 11:30N 47°25' W 003°08'5 9.2
2017-Oct-05 10:59N 47°21' W 003°09'0 0.0
2017-Oct-05 10:30N 47°21' W 003°09'2 4.8
2017-Oct-05 10:00N 47°23' W 003°08'611.0
2017-Oct-05 09:30N 47°29' W 003°07'0 0.0
2017-Oct-05 09:00N 47°29' W 003°07'0 0.0
2017-Oct-05 08:30N 47°29' W 003°07'510.4
2017-Oct-05 08:00N 47°23' W 003°08'3 5.2
2017-Oct-05 07:30N 47°21' W 003°09'0 0.0
2017-Oct-05 07:00N 47°21' W 003°09'510.0
2017-Oct-05 06:30N 47°26' W 003°08'3 5.8
2017-Oct-05 06:00N 47°29' W 003°07'0 0.0
2017-Oct-05 05:31N 47°29' W 003°07'611.5
2017-Oct-05 05:00N 47°23' W 003°08'2 4.2
2017-Oct-05 04:30N 47°21' W 003°09'0 0.2
2017-Oct-05 04:00N 47°21' W 003°09'0 0.0
2017-Oct-04 18:39N 47°21' W 003°09'0 0.0
2017-Oct-04 18:30N 47°21' W 003°09'2 4.5
2017-Oct-04 18:00N 47°23' W 003°08'611.2
2017-Oct-04 17:31N 47°29' W 003°07'0 0.0
2017-Oct-04 17:01N 47°29' W 003°07'611.6
2017-Oct-04 16:30N 47°23' W 003°08'2 3.8
2017-Oct-04 15:58N 47°21' W 003°09'3 5.6
2017-Oct-04 15:31N 47°23' W 003°08'510.8
2017-Oct-04 15:01N 47°29' W 003°07'0 0.0
2017-Oct-04 14:31N 47°29' W 003°07'3 5.8
2017-Oct-04 14:00N 47°26' W 003°08'5 9.5
2017-Oct-04 13:29N 47°21' W 003°09'0 0.0
2017-Oct-04 13:01N 47°21' W 003°09'3 5.2
2017-Oct-04 12:30N 47°23' W 003°07'510.8
2017-Oct-04 12:00N 47°29' W 003°07'0 0.0
2017-Oct-04 11:30N 47°29' W 003°07'3 6.1
2017-Oct-04 11:01N 47°26' W 003°08'5 9.7
2017-Oct-04 10:30N 47°21' W 003°09'0 0.0
2017-Oct-04 10:00N 47°21' W 003°09'3 6.9
2017-Oct-04 09:30N 47°24' W 003°08'5 9.0
2017-Oct-04 09:00N 47°29' W 003°07'0 0.1
2017-Oct-04 08:30N 47°29' W 003°07'611.7
2017-Oct-04 08:00N 47°23' W 003°08'2 3.9
2017-Oct-04 07:30N 47°21' W 003°09'0 0.1
2017-Oct-04 07:00N 47°21' W 003°09'510.7
2017-Oct-04 06:31N 47°26' W 003°08'3 5.0
2017-Oct-04 06:00N 47°29' W 003°07'0 0.1
2017-Oct-04 05:31N 47°29' W 003°07'611.8
2017-Oct-04 05:00N 47°23' W 003°08'2 3.4
2017-Oct-04 04:26N 47°21' W 003°09'0 0.2
2017-Oct-04 04:01N 47°21' W 003°09'0 0.0
2017-Oct-03 18:39N 47°21' W 003°09'0 0.3
2017-Oct-03 18:30N 47°21' W 003°09'3 5.1
2017-Oct-03 18:00N 47°23' W 003°08'510.6
2017-Oct-03 17:30N 47°29' W 003°07'0 0.1
2017-Oct-03 17:00N 47°29' W 003°07'611.9
2017-Oct-03 16:30N 47°23' W 003°08'2 2.7
2017-Oct-03 15:49N 47°21' W 003°09'3 9.2
2017-Oct-03 15:30N 47°24' W 003°08'510.1
2017-Oct-03 15:00N 47°29' W 003°07'3 2.8
2017-Oct-03 14:00N 47°26' W 003°08'510.2
2017-Oct-03 13:31N 47°21' W 003°09'0 0.0
2017-Oct-03 12:57N 47°21' W 003°09'3 5.6
2017-Oct-03 12:30N 47°23' W 003°08'510.8
2017-Oct-03 12:00N 47°29' W 003°07'0 0.0
2017-Oct-03 11:30N 47°29' W 003°07'3 6.0
2017-Oct-03 11:00N 47°26' W 003°08'5 9.1
2017-Oct-03 10:28N 47°21' W 003°09'0 0.0
2017-Oct-03 10:00N 47°21' W 003°09'2 4.8
2017-Oct-03 09:30N 47°23' W 003°08'611.1
2017-Oct-03 09:00N 47°29' W 003°07'0 0.0
2017-Oct-03 08:30N 47°29' W 003°07'510.4
2017-Oct-03 08:00N 47°23' W 003°08'3 5.3
2017-Oct-03 07:29N 47°21' W 003°09'0 0.0
2017-Oct-03 06:59N 47°21' W 003°09'510.0
2017-Oct-03 06:30N 47°26' W 003°08'3 6.2
2017-Oct-03 06:00N 47°29' W 003°07'0 0.1
2017-Oct-03 05:31N 47°29' W 003°07'611.7
2017-Oct-03 05:00N 47°23' W 003°08'2 3.9
2017-Oct-03 04:30N 47°21' W 003°09'0 0.2
2017-Oct-03 04:00N 47°21' W 003°09'0 0.0
2017-Oct-02 18:54N 47°21' W 003°09'0 0.2
2017-Oct-02 18:29N 47°21' W 003°09'3 7.0
2017-Oct-02 18:00N 47°24' W 003°08'5 9.1
2017-Oct-02 17:30N 47°29' W 003°07'0 0.0
2017-Oct-02 17:00N 47°29' W 003°07'611.6
2017-Oct-02 16:30N 47°23' W 003°08'2 3.6
2017-Oct-02 15:56N 47°21' W 003°09'3 5.9
2017-Oct-02 15:30N 47°23' W 003°08'510.8
2017-Oct-02 15:00N 47°29' W 003°07'0 0.0
2017-Oct-02 14:30N 47°29' W 003°07'3 5.3
2017-Oct-02 14:00N 47°26' W 003°08'510.5
2017-Oct-02 13:30N 47°21' W 003°09'0 0.0
2017-Oct-02 13:00N 47°21' W 003°09'2 4.9
2017-Oct-02 12:30N 47°23' W 003°08'510.9
2017-Oct-02 12:00N 47°29' W 003°07'0 0.0
2017-Oct-02 11:30N 47°29' W 003°07'3 6.3
2017-Oct-02 11:00N 47°25' W 003°08'5 4.0
2017-Oct-02 09:50N 47°21' W 003°09'3 9.9
2017-Oct-02 09:30N 47°24' W 003°08'5 9.4
2017-Oct-02 09:00N 47°29' W 003°07'0 0.0
2017-Oct-02 08:31N 47°29' W 003°07'510.9
2017-Oct-02 08:01N 47°23' W 003°08'2 3.5
2017-Oct-02 07:18N 47°21' W 003°09'0 0.0
2017-Oct-02 06:58N 47°21' W 003°09'510.4
2017-Oct-02 06:31N 47°26' W 003°08'3 6.1
2017-Oct-02 06:00N 47°29' W 003°07'0 0.0
2017-Oct-02 05:31N 47°29' W 003°07'3 6.3
2017-Oct-02 05:00N 47°25' W 003°08'5 9.1
2017-Oct-02 04:30N 47°21' W 003°09'0 0.0
2017-Oct-02 04:00N 47°21' W 003°09'0 0.0
2017-Oct-01 18:37N 47°21' W 003°09'0 0.2
2017-Oct-01 18:30N 47°21' W 003°09'3 6.2
2017-Oct-01 18:01N 47°24' W 003°08'5 9.5
2017-Oct-01 17:30N 47°29' W 003°07'1 1.2
2017-Oct-01 17:00N 47°28' W 003°07'612.3
2017-Oct-01 16:30N 47°22' W 003°09'1 2.3
2017-Oct-01 16:00N 47°21' W 003°09'4 7.4
2017-Oct-01 15:30N 47°24' W 003°08'4 8.5
2017-Oct-01 15:01N 47°29' W 003°07'0 0.0
2017-Oct-01 14:30N 47°29' W 003°07'4 8.2
2017-Oct-01 14:00N 47°25' W 003°08'4 7.5
2017-Oct-01 13:30N 47°21' W 003°09'0 0.0
2017-Oct-01 13:00N 47°21' W 003°09'2 4.8
2017-Oct-01 12:30N 47°23' W 003°08'511.0
2017-Oct-01 12:00N 47°29' W 003°07'0 0.0
2017-Oct-01 11:30N 47°29' W 003°07'3 5.9
2017-Oct-01 11:00N 47°26' W 003°08'5 9.7
2017-Oct-01 10:30N 47°21' W 003°09'0 0.0
2017-Oct-01 10:00N 47°21' W 003°09'3 5.5
2017-Oct-01 09:31N 47°23' W 003°08'510.4
2017-Oct-01 09:00N 47°29' W 003°07'0 0.0
2017-Oct-01 08:30N 47°29' W 003°07'5 9.9
2017-Oct-01 08:00N 47°24' W 003°08'3 5.8
2017-Oct-01 07:30N 47°21' W 003°09'0 0.0
2017-Oct-01 07:00N 47°21' W 003°09'510.8
2017-Oct-01 06:30N 47°26' W 003°08'3 5.1
2017-Oct-01 06:00N 47°29' W 003°07'3 6.3
2017-Oct-01 05:30N 47°25' W 003°08'5 7.7
2017-Oct-01 04:54N 47°21' W 003°09'0 0.1
2017-Oct-01 04:30N 47°21' W 003°09'0 0.0
2017-Sep-29 18:46N 47°21' W 003°09'0 0.3
2017-Sep-29 18:30N 47°21' W 003°09'3 5.2
2017-Sep-29 18:00N 47°23' W 003°08'510.8
2017-Sep-29 17:30N 47°29' W 003°07'0 0.7
2017-Sep-29 17:00N 47°28' W 003°07'612.2
2017-Sep-29 16:30N 47°22' W 003°08'1 2.6
2017-Sep-29 15:58N 47°21' W 003°09'4 9.8
2017-Sep-29 15:30N 47°25' W 003°08'3 6.9
2017-Sep-29 15:00N 47°29' W 003°07'0 0.2
2017-Sep-29 14:31N 47°29' W 003°07'612.0
2017-Sep-29 14:00N 47°23' W 003°08'2 3.5
2017-Sep-29 13:29N 47°21' W 003°09'0 0.0
2017-Sep-29 12:59N 47°21' W 003°09'4 7.8
2017-Sep-29 12:30N 47°24' W 003°08'4 8.4
2017-Sep-29 12:00N 47°29' W 003°07'0 0.0
2017-Sep-29 11:30N 47°29' W 003°07'3 5.9
2017-Sep-29 11:00N 47°26' W 003°08'5 9.6
2017-Sep-29 10:30N 47°21' W 003°09'0 0.0
2017-Sep-29 10:00N 47°21' W 003°09'3 5.5
2017-Sep-29 09:30N 47°23' W 003°08'510.3
2017-Sep-29 09:00N 47°29' W 003°07'0 0.0
2017-Sep-29 08:30N 47°29' W 003°07'510.3
2017-Sep-29 08:00N 47°23' W 003°08'3 5.0
2017-Sep-29 07:28N 47°21' W 003°09'0 0.0
2017-Sep-29 06:58N 47°21' W 003°09'510.2
2017-Sep-29 06:30N 47°25' W 003°08'3 6.5
2017-Sep-29 06:00N 47°29' W 003°07'0 0.2
2017-Sep-29 05:30N 47°29' W 003°07'612.1
2017-Sep-29 05:00N 47°23' W 003°09'2 3.4
2017-Sep-29 04:30N 47°21' W 003°09'0 0.2
2017-Sep-29 04:00N 47°21' W 003°09'0 0.0
2017-Sep-28 18:50N 47°21' W 003°09'0 0.1
2017-Sep-28 18:31N 47°21' W 003°09'3 5.1
2017-Sep-28 18:00N 47°23' W 003°08'510.5
2017-Sep-28 17:30N 47°29' W 003°07'0 0.2
2017-Sep-28 17:00N 47°29' W 003°07'612.2
2017-Sep-28 16:30N 47°22' W 003°08'2 3.3
2017-Sep-28 16:00N 47°21' W 003°09'3 6.0
2017-Sep-28 15:30N 47°24' W 003°08'5 9.9
2017-Sep-28 15:00N 47°29' W 003°07'0 0.0
2017-Sep-28 14:30N 47°29' W 003°07'4 9.0
2017-Sep-28 14:00N 47°24' W 003°08'3 4.4
2017-Sep-28 13:14N 47°21' W 003°09'0 0.0
2017-Sep-28 13:00N 47°21' W 003°09'3 6.4
2017-Sep-28 12:30N 47°24' W 003°08'5 9.4
2017-Sep-28 12:00N 47°29' W 003°07'0 0.0
2017-Sep-28 11:30N 47°29' W 003°07'3 6.1
2017-Sep-28 11:00N 47°26' W 003°08'5 9.7
2017-Sep-28 10:30N 47°21' W 003°09'0 0.0
2017-Sep-28 09:58N 47°21' W 003°09'3 6.2
2017-Sep-28 09:30N 47°24' W 003°08'510.2
2017-Sep-28 09:00N 47°29' W 003°07'1 1.4
2017-Sep-28 08:30N 47°28' W 003°07'612.1
2017-Sep-28 08:00N 47°22' W 003°08'1 1.8
2017-Sep-28 07:20N 47°21' W 003°09'1 2.1
2017-Sep-28 07:00N 47°21' W 003°08'612.0
2017-Sep-28 06:30N 47°27' W 003°07'1 2.8
2017-Sep-28 06:00N 47°29' W 003°07'1 2.3
2017-Sep-28 05:30N 47°27' W 003°08'612.0
2017-Sep-28 05:00N 47°22' W 003°09'1 1.6
2017-Sep-28 04:30N 47°21' W 003°09'0 0.2
2017-Sep-28 04:00N 47°21' W 003°09'0 0.0
2017-Sep-27 19:27N 47°21' W 003°09'0 0.2
2017-Sep-27 18:59N 47°21' W 003°09'1 1.9
2017-Sep-27 18:30N 47°22' W 003°08'612.0
2017-Sep-27 18:00N 47°28' W 003°08'1 2.2
2017-Sep-27 17:30N 47°29' W 003°07'2 4.4
2017-Sep-27 17:00N 47°26' W 003°08'611.3
2017-Sep-27 16:30N 47°21' W 003°09'0 0.1
2017-Sep-27 15:58N 47°21' W 003°09'4 8.8
2017-Sep-27 15:30N 47°25' W 003°10'611.7
2017-Sep-27 15:01N 47°30' W 003°14'611.6
2017-Sep-27 14:30N 47°35' W 003°18'611.7
2017-Sep-27 14:00N 47°40' W 003°22'4 8.1
2017-Sep-27 13:30N 47°44' W 003°21'0 0.0
2017-Sep-27 13:00N 47°44' W 003°21'0 0.0
2017-Sep-27 12:30N 47°44' W 003°21'0 0.0
2017-Sep-27 12:01N 47°44' W 003°21'  

Dump ship's entire track history